Time;durP1;ratioP1;P1;durP2;ratioP2;P2;SDS_P1;SDS_P2;PMS_P1;PMS_P2;Temp;Humidity;BMP_temperature;BMP_pressure;BME280_temperature;BME280_humidity;BME280_pressure;Samples;Min_cycle;Max_cycle;Signal;HPM_P1;HPM_P2
2021/01/18 00:00:44;;;;;;;;;;;;;;;;;;4980393;28;19930;-66
2021/01/18 00:03:12;;;;;;;;;;;;;;;;;;4974071;28;19964;-66
2021/01/18 00:05:39;;;;;;;;;;;;;;;;;;4975596;28;19927;-67
2021/01/18 00:08:06;;;;;;;;;;;;;;;;;;4976875;28;19926;-66
2021/01/18 00:10:33;;;;;;;;;;;;;;;;;;4974400;28;20406;-66
2021/01/18 00:13:00;;;;;;;;;;;;;;;;;;4982931;28;19936;-67
2021/01/18 00:15:27;;;;;;;;;;;;;;;;;;4974092;28;20400;-67
2021/01/18 00:17:54;;;;;;;;;;;;;;;;;;4974533;28;19932;-66
2021/01/18 00:20:21;;;;;;;;;;;;;;;;;;4973882;28;19936;-67
2021/01/18 00:22:49;;;;;;;;;;;;;;;;;;4973682;28;20333;-67
2021/01/18 00:25:16;;;;;;;;;;;;;;;;;;4970138;28;20178;-67
2021/01/18 00:27:43;;;;;;;;;;;;;;;;;;4973035;28;19932;-66
2021/01/18 00:30:10;;;;;;;;;;;;;;;;;;4970148;28;20054;-66
2021/01/18 00:32:38;;;;;;;;;;;;;;;;;;4990088;28;19936;-67
2021/01/18 00:35:06;;;;;;;;;;;;;;;;;;4972383;28;19981;-67
2021/01/18 00:37:33;;;;;;;;;;;;;;;;;;4971411;28;19936;-67
2021/01/18 00:40:00;;;;;;;;;;;;;;;;;;4972543;28;20306;-67
2021/01/18 00:42:27;;;;;;;;;;;;;;;;;;4972570;28;19977;-67
2021/01/18 00:44:54;;;;;;;;;;;;;;;;;;4968286;28;19938;-66
2021/01/18 00:47:21;;;;;;;;;;;;;;;;;;4966016;28;19926;-66
2021/01/18 00:49:49;;;;;;;;;;;;;;;;;;4972268;28;19977;-66
2021/01/18 00:52:16;;;;;;;;;;;;;;;;;;4966843;28;20037;-66
2021/01/18 00:54:43;;;;;;;;;;;;;;;;;;4973654;28;19934;-66
2021/01/18 00:57:10;;;;;;;;;;;;;;;;;;4972544;28;19932;-66
2021/01/18 00:59:37;;;;;;;;;;;;;;;;;;4969796;28;20494;-66
2021/01/18 01:02:04;;;;;;;;;;;;;;;;;;4971111;28;20294;-66
2021/01/18 01:04:31;;;;;;;;;;;;;;;;;;4971435;28;19964;-66
2021/01/18 01:06:58;;;;;;;;;;;;;;;;;;4973049;28;19926;-67
2021/01/18 01:09:25;;;;;;;;;;;;;;;;;;4973004;28;19926;-67
2021/01/18 01:11:52;;;;;;;;;;;;;;;;;;4972330;28;19936;-67
2021/01/18 01:14:20;;;;;;;;;;;;;;;;;;4977373;28;20396;-67
2021/01/18 01:16:47;;;;;;;;;;;;;;;;;;4972399;28;19930;-67
2021/01/18 01:19:14;;;;;;;;;;;;;;;;;;4972564;28;19949;-67
2021/01/18 01:21:41;;;;;;;;;;;;;;;;;;4966547;28;19932;-67
2021/01/18 01:24:09;;;;;;;;;;;;;;;;;;4977184;28;20033;-67
2021/01/18 01:26:36;;;;;;;;;;;;;;;;;;4984632;28;19930;-67
2021/01/18 01:29:03;;;;;;;;;;;;;;;;;;4991765;28;19930;-67
2021/01/18 01:31:30;;;;;;;;;;;;;;;;;;4991917;28;19932;-67
2021/01/18 01:33:57;;;;;;;;;;;;;;;;;;4991829;28;19933;-67
2021/01/18 01:36:24;;;;;;;;;;;;;;;;;;4991383;28;19934;-67
2021/01/18 01:38:52;;;;;;;;;;;;;;;;;;4992296;28;19932;-67
2021/01/18 01:41:19;;;;;;;;;;;;;;;;;;4991886;28;20288;-67
2021/01/18 01:43:46;;;;;;;;;;;;;;;;;;4992065;28;20212;-67
2021/01/18 01:46:13;;;;;;;;;;;;;;;;;;4991761;28;20285;-67
2021/01/18 01:48:40;;;;;;;;;;;;;;;;;;4990572;28;20020;-67
2021/01/18 01:51:07;;;;;;;;;;;;;;;;;;4991339;28;20324;-66
2021/01/18 01:53:34;;;;;;;;;;;;;;;;;;4991735;28;19936;-66
2021/01/18 01:56:02;;;;;;;;;;;;;;;;;;4991579;28;19948;-66
2021/01/18 01:58:29;;;;;;;;;;;;;;;;;;4991256;28;19929;-67
2021/01/18 02:00:56;;;;;;;;;;;;;;;;;;4990889;28;19930;-66
2021/01/18 02:03:23;;;;;;;;;;;;;;;;;;4994486;23;19941;-62
2021/01/18 02:05:53;;;;;;;;;;;;;;;;;;4975115;28;20278;-62
2021/01/18 02:08:20;;;;;;;;;;;;;;;;;;4975170;28;19926;-61
2021/01/18 02:10:47;;;;;;;;;;;;;;;;;;4975539;28;20010;-61
2021/01/18 02:13:14;;;;;;;;;;;;;;;;;;4974941;28;19926;-61
2021/01/18 02:15:42;;;;;;;;;;;;;;;;;;4975639;28;19926;-61
2021/01/18 02:18:09;;;;;;;;;;;;;;;;;;4974676;28;20255;-61
2021/01/18 02:20:36;;;;;;;;;;;;;;;;;;4975989;28;19932;-62
2021/01/18 02:23:03;;;;;;;;;;;;;;;;;;4975134;28;19976;-63
2021/01/18 02:25:30;;;;;;;;;;;;;;;;;;4974723;28;19926;-60
2021/01/18 02:27:58;;;;;;;;;;;;;;;;;;4973239;28;20025;-62
2021/01/18 02:30:25;;;;;;;;;;;;;;;;;;4965571;28;20010;-62
2021/01/18 02:32:54;;;;;;;;;;;;;;;;;;4971612;28;20271;-60
2021/01/18 02:35:21;;;;;;;;;;;;;;;;;;4971766;28;19926;-60
2021/01/18 02:37:48;;;;;;;;;;;;;;;;;;4971386;28;20473;-61
2021/01/18 02:40:15;;;;;;;;;;;;;;;;;;4966685;28;20282;-61
2021/01/18 02:42:43;;;;;;;;;;;;;;;;;;4972183;28;19965;-60
2021/01/18 02:45:10;;;;;;;;;;;;;;;;;;4967278;28;20396;-61
2021/01/18 02:47:37;;;;;;;;;;;;;;;;;;4977680;28;20028;-61
2021/01/18 02:50:04;;;;;;;;;;;;;;;;;;4974343;28;19930;-62
2021/01/18 02:52:31;;;;;;;;;;;;;;;;;;4975776;28;20366;-61
2021/01/18 02:54:58;;;;;;;;;;;;;;;;;;4975627;28;20290;-61
2021/01/18 02:57:26;;;;;;;;;;;;;;;;;;4975714;28;19980;-62
2021/01/18 02:59:53;;;;;;;;;;;;;;;;;;4974613;28;19926;-63
2021/01/18 03:02:20;;;;;;;;;;;;;;;;;;4975391;28;19926;-60
2021/01/18 03:04:47;;;;;;;;;;;;;;;;;;4986797;28;20349;-62
2021/01/18 03:07:15;;;;;;;;;;;;;;;;;;4995052;28;19936;-62
2021/01/18 03:09:42;;;;;;;;;;;;;;;;;;4994335;28;19938;-63
2021/01/18 03:12:10;;;;;;;;;;;;;;;;;;4996854;28;19996;-61
2021/01/18 03:14:38;;;;;;;;;;;;;;;;;;4982370;28;19933;-60
2021/01/18 03:17:05;;;;;;;;;;;;;;;;;;4994797;28;20024;-62
2021/01/18 03:19:32;;;;;;;;;;;;;;;;;;4995261;28;19972;-61
2021/01/18 03:21:59;;;;;;;;;;;;;;;;;;4995223;28;19972;-62
2021/01/18 03:24:27;;;;;;;;;;;;;;;;;;4990050;28;19930;-63
2021/01/18 03:26:54;;;;;;;;;;;;;;;;;;4994589;28;19926;-60
2021/01/18 03:29:21;;;;;;;;;;;;;;;;;;4993643;28;19926;-60
2021/01/18 03:31:48;;;;;;;;;;;;;;;;;;4994581;28;19930;-60
2021/01/18 03:34:15;;;;;;;;;;;;;;;;;;4994604;28;19926;-62
2021/01/18 03:36:42;;;;;;;;;;;;;;;;;;4994514;28;19926;-61
2021/01/18 03:39:09;;;;;;;;;;;;;;;;;;4989685;28;20422;-60
2021/01/18 03:41:36;;;;;;;;;;;;;;;;;;4994472;28;19952;-62
2021/01/18 03:44:04;;;;;;;;;;;;;;;;;;4994826;28;19926;-60
2021/01/18 03:46:31;;;;;;;;;;;;;;;;;;4994340;28;19932;-63
2021/01/18 03:48:58;;;;;;;;;;;;;;;;;;4993616;28;19934;-61
2021/01/18 03:51:25;;;;;;;;;;;;;;;;;;4994009;28;19926;-62
2021/01/18 03:53:52;;;;;;;;;;;;;;;;;;4994372;28;19932;-62
2021/01/18 03:56:19;;;;;;;;;;;;;;;;;;4986237;28;19930;-62
2021/01/18 03:58:46;;;;;;;;;;;;;;;;;;4993203;28;20048;-62
2021/01/18 04:01:13;;;;;;;;;;;;;;;;;;4993918;28;19932;-62
2021/01/18 04:03:53;;;;;;;;;;;;;;;;;;3100069;28;10001400;-60
2021/01/18 04:06:20;;;;;;;;;;;;;;;;;;2572242;28;10001987;-61
2021/01/18 04:08:47;;;;;;;;;;;;;;;;;;4976638;28;19934;-61
2021/01/18 04:11:14;;;;;;;;;;;;;;;;;;4994007;28;19926;-62
2021/01/18 04:13:42;;;;;;;;;;;;;;;;;;4993728;28;19930;-60
2021/01/18 04:16:09;;;;;;;;;;;;;;;;;;4993176;28;19925;-61
2021/01/18 04:18:36;;;;;;;;;;;;;;;;;;4993126;28;19926;-61
2021/01/18 04:21:03;;;;;;;;;;;;;;;;;;4993415;28;20465;-61
2021/01/18 04:23:30;;;;;;;;;;;;;;;;;;4993331;28;20282;-61
2021/01/18 04:25:57;;;;;;;;;;;;;;;;;;4991734;28;19926;-62
2021/01/18 04:28:25;;;;;;;;;;;;;;;;;;4993538;28;20440;-61
2021/01/18 04:30:52;;;;;;;;;;;;;;;;;;4988387;28;19951;-61
2021/01/18 04:33:19;;;;;;;;;;;;;;;;;;4993380;28;20262;-61
2021/01/18 04:35:46;;;;;;;;;;;;;;;;;;4992940;28;20052;-61
2021/01/18 04:38:13;;;;;;;;;;;;;;;;;;4993925;28;19926;-62
2021/01/18 04:40:42;;;;;;;;;;;;;;;;;;4992255;28;19932;-61
2021/01/18 04:43:10;;;;;;;;;;;;;;;;;;4993131;28;19926;-61
2021/01/18 04:45:37;;;;;;;;;;;;;;;;;;4992951;28;20293;-61
2021/01/18 04:48:04;;;;;;;;;;;;;;;;;;4988937;28;19926;-64
2021/01/18 04:50:31;;;;;;;;;;;;;;;;;;4992367;28;20016;-62
2021/01/18 04:52:58;;;;;;;;;;;;;;;;;;4994120;28;20020;-65
2021/01/18 04:55:26;;;;;;;;;;;;;;;;;;4993999;28;19932;-62
2021/01/18 04:57:53;;;;;;;;;;;;;;;;;;4993852;28;19948;-60
2021/01/18 05:00:20;;;;;;;;;;;;;;;;;;4991988;28;19926;-61
2021/01/18 05:02:47;;;;;;;;;;;;;;;;;;4992749;28;20304;-61
2021/01/18 05:05:14;;;;;;;;;;;;;;;;;;4992756;28;20317;-61
2021/01/18 05:07:43;;;;;;;;;;;;;;;;;;4991437;28;19929;-61
2021/01/18 05:10:10;;;;;;;;;;;;;;;;;;4991737;28;20009;-63
2021/01/18 05:12:38;;;;;;;;;;;;;;;;;;4992815;28;19926;-61
2021/01/18 05:15:05;;;;;;;;;;;;;;;;;;4992167;28;19932;-62
2021/01/18 05:17:32;;;;;;;;;;;;;;;;;;4992760;28;20016;-61
2021/01/18 05:19:59;;;;;;;;;;;;;;;;;;4987179;28;19926;-62
2021/01/18 05:22:26;;;;;;;;;;;;;;;;;;4989484;28;20348;-66
2021/01/18 05:24:53;;;;;;;;;;;;;;;;;;4992550;28;19980;-62
2021/01/18 05:27:20;;;;;;;;;;;;;;;;;;4992885;28;19932;-62
2021/01/18 05:29:48;;;;;;;;;;;;;;;;;;4991518;28;20016;-62
2021/01/18 05:32:15;;;;;;;;;;;;;;;;;;4987841;28;20301;-61
2021/01/18 05:34:43;;;;;;;;;;;;;;;;;;4991563;28;19926;-62
2021/01/18 05:37:10;;;;;;;;;;;;;;;;;;4991796;28;20012;-61
2021/01/18 05:39:38;;;;;;;;;;;;;;;;;;4990971;28;19929;-61
2021/01/18 05:42:05;;;;;;;;;;;;;;;;;;4991090;28;20412;-61
2021/01/18 05:44:32;;;;;;;;;;;;;;;;;;4992356;28;19932;-60
2021/01/18 05:46:59;;;;;;;;;;;;;;;;;;4991345;28;20453;-62
2021/01/18 05:49:27;;;;;;;;;;;;;;;;;;4990981;28;19934;-65
2021/01/18 05:51:54;;;;;;;;;;;;;;;;;;4991317;28;19944;-61
2021/01/18 05:54:21;;;;;;;;;;;;;;;;;;4990894;28;19932;-61
2021/01/18 05:56:48;;;;;;;;;;;;;;;;;;4984065;28;20021;-60
2021/01/18 05:59:15;;;;;;;;;;;;;;;;;;4991317;28;20025;-60
2021/01/18 06:01:43;;;;;;;;;;;;;;;;;;4990920;28;19940;-61
2021/01/18 06:04:10;;;;;;;;;;;;;;;;;;4991652;28;19929;-61
2021/01/18 06:06:37;;;;;;;;;;;;;;;;;;4998659;28;20016;-63
2021/01/18 06:09:04;;;;;;;;;;;;;;;;;;4990694;28;19933;-65
2021/01/18 06:11:31;;;;;;;;;;;;;;;;;;4984157;28;19937;-61
2021/01/18 06:13:59;;;;;;;;;;;;;;;;;;4991105;28;19925;-61
2021/01/18 06:16:26;;;;;;;;;;;;;;;;;;4991232;28;19932;-62
2021/01/18 06:18:53;;;;;;;;;;;;;;;;;;4983225;28;19930;-63
2021/01/18 06:21:20;;;;;;;;;;;;;;;;;;4973358;28;20017;-61
2021/01/18 06:23:48;;;;;;;;;;;;;;;;;;4987890;28;20301;-62
2021/01/18 06:26:15;;;;;;;;;;;;;;;;;;4987447;28;19934;-63
2021/01/18 06:28:42;;;;;;;;;;;;;;;;;;4981207;28;19930;-63
2021/01/18 06:31:09;;;;;;;;;;;;;;;;;;4981927;28;19933;-64
2021/01/18 06:33:36;;;;;;;;;;;;;;;;;;4987971;28;19929;-61
2021/01/18 06:36:04;;;;;;;;;;;;;;;;;;4977902;28;20401;-63
2021/01/18 06:38:31;;;;;;;;;;;;;;;;;;4975789;28;20011;-64
2021/01/18 06:40:58;;;;;;;;;;;;;;;;;;4986654;28;20389;-63
2021/01/18 06:43:25;;;;;;;;;;;;;;;;;;4987227;28;19926;-62
2021/01/18 06:45:52;;;;;;;;;;;;;;;;;;4986860;28;20381;-63
2021/01/18 06:48:19;;;;;;;;;;;;;;;;;;4986108;28;19981;-61
2021/01/18 06:50:46;;;;;;;;;;;;;;;;;;4988323;28;20084;-61
2021/01/18 06:53:14;;;;;;;;;;;;;;;;;;4985517;28;20419;-61
2021/01/18 06:55:41;;;;;;;;;;;;;;;;;;4982159;28;19930;-63
2021/01/18 06:58:08;;;;;;;;;;;;;;;;;;4977041;28;20016;-61
2021/01/18 07:00:35;;;;;;;;;;;;;;;;;;4994303;28;19930;-62
2021/01/18 07:03:02;;;;;;;;;;;;;;;;;;4984928;28;19930;-61
2021/01/18 07:05:29;;;;;;;;;;;;;;;;;;4979886;28;19985;-60
2021/01/18 07:07:56;;;;;;;;;;;;;;;;;;4987825;28;20017;-62
2021/01/18 07:10:24;;;;;;;;;;;;;;;;;;4987374;28;20012;-61
2021/01/18 07:12:51;;;;;;;;;;;;;;;;;;4987506;28;19934;-64
2021/01/18 07:15:19;;;;;;;;;;;;;;;;;;4985973;28;20575;-61
2021/01/18 07:17:46;;;;;;;;;;;;;;;;;;4993495;28;20008;-62
2021/01/18 07:20:13;;;;;;;;;;;;;;;;;;4993985;28;19933;-61
2021/01/18 07:22:53;;;;;;;;;;;;;;;;;;4992851;28;20491;-62
2021/01/18 07:25:25;;;;;;;;;;;;;;;;;;4985785;28;19984;-65
2021/01/18 07:27:52;;;;;;;;;;;;;;;;;;4978393;28;20396;-64
2021/01/18 07:30:19;;;;;;;;;;;;;;;;;;4978574;28;19934;-65
2021/01/18 07:32:47;;;;;;;;;;;;;;;;;;4985194;28;19934;-64
2021/01/18 07:35:14;;;;;;;;;;;;;;;;;;4986365;28;19980;-65
2021/01/18 07:37:42;;;;;;;;;;;;;;;;;;4988983;28;20028;-63
2021/01/18 07:40:10;;;;;;;;;;;;;;;;;;4989241;28;20386;-62
2021/01/18 07:42:37;;;;;;;;;;;;;;;;;;4987328;28;19930;-64
2021/01/18 07:45:05;;;;;;;;;;;;;;;;;;4990423;28;19926;-64
2021/01/18 07:47:32;;;;;;;;;;;;;;;;;;4989266;28;20130;-62
2021/01/18 07:49:59;;;;;;;;;;;;;;;;;;4991611;28;20385;-60
2021/01/18 07:52:27;;;;;;;;;;;;;;;;;;4990064;28;20304;-62
2021/01/18 07:54:55;;;;;;;;;;;;;;;;;;4992236;28;20294;-61
2021/01/18 07:57:22;;;;;;;;;;;;;;;;;;4992780;28;19926;-61
2021/01/18 07:59:49;;;;;;;;;;;;;;;;;;4992948;28;19996;-62
2021/01/18 08:02:17;;;;;;;;;;;;;;;;;;4988325;28;20060;-63
2021/01/18 08:04:46;;;;;;;;;;;;;;;;;;4992562;28;19937;-61
2021/01/18 08:07:14;;;;;;;;;;;;;;;;;;4984634;28;19933;-62
2021/01/18 08:09:41;;;;;;;;;;;;;;;;;;4987808;28;20310;-61
2021/01/18 08:12:08;;;;;;;;;;;;;;;;;;4980187;28;19926;-61
2021/01/18 08:14:36;;;;;;;;;;;;;;;;;;4985720;28;19926;-61
2021/01/18 08:17:03;;;;;;;;;;;;;;;;;;5001438;28;20289;-61
2021/01/18 08:19:31;;;;;;;;;;;;;;;;;;4981702;28;19934;-61
2021/01/18 08:21:58;;;;;;;;;;;;;;;;;;4978113;28;19926;-62
2021/01/18 08:24:26;;;;;;;;;;;;;;;;;;4985057;28;20033;-63
2021/01/18 08:26:53;;;;;;;;;;;;;;;;;;4980299;28;19930;-61
2021/01/18 08:29:23;;;;;;;;;;;;;;;;;;4989780;28;19934;-61
2021/01/18 08:31:50;;;;;;;;;;;;;;;;;;4985891;28;20392;-60
2021/01/18 08:34:18;;;;;;;;;;;;;;;;;;4988529;28;19934;-63
2021/01/18 08:36:46;;;;;;;;;;;;;;;;;;4977535;28;19986;-60
2021/01/18 08:39:14;;;;;;;;;;;;;;;;;;4989337;28;20431;-62
2021/01/18 08:41:42;;;;;;;;;;;;;;;;;;4977225;28;19937;-62
2021/01/18 08:44:09;;;;;;;;;;;;;;;;;;4992913;28;19933;-61
2021/01/18 08:46:37;;;;;;;;;;;;;;;;;;4992121;28;19930;-62
2021/01/18 08:49:05;;;;;;;;;;;;;;;;;;4980602;28;19934;-61
2021/01/18 08:51:32;;;;;;;;;;;;;;;;;;4992794;28;19926;-60
2021/01/18 08:54:00;;;;;;;;;;;;;;;;;;4989209;28;20476;-61
2021/01/18 08:56:27;;;;;;;;;;;;;;;;;;4990205;28;19930;-63
2021/01/18 08:58:55;;;;;;;;;;;;;;;;;;4990026;28;19934;-60
2021/01/18 09:01:22;;;;;;;;;;;;;;;;;;4990098;28;19929;-61
2021/01/18 09:03:50;;;;;;;;;;;;;;;;;;4989614;28;19930;-63
2021/01/18 09:06:17;;;;;;;;;;;;;;;;;;4978476;28;19943;-62
2021/01/18 09:08:45;;;;;;;;;;;;;;;;;;4985159;28;19987;-62
2021/01/18 09:11:12;;;;;;;;;;;;;;;;;;4991726;28;19926;-61
2021/01/18 09:13:40;;;;;;;;;;;;;;;;;;4989944;28;19934;-61
2021/01/18 09:16:08;;;;;;;;;;;;;;;;;;4987658;28;19930;-60
2021/01/18 09:18:35;;;;;;;;;;;;;;;;;;4990162;28;19980;-60
2021/01/18 09:21:03;;;;;;;;;;;;;;;;;;4989269;28;20332;-61
2021/01/18 09:23:31;;;;;;;;;;;;;;;;;;4990238;28;19996;-61
2021/01/18 09:25:59;;;;;;;;;;;;;;;;;;4990704;28;20396;-65
2021/01/18 09:28:27;;;;;;;;;;;;;;;;;;4993078;28;19936;-63
2021/01/18 09:30:55;;;;;;;;;;;;;;;;;;4980385;28;19926;-61
2021/01/18 09:33:22;;;;;;;;;;;;;;;;;;4995477;28;19926;-61
2021/01/18 09:35:50;;;;;;;;;;;;;;;;;;4992506;28;19980;-62
2021/01/18 09:38:18;;;;;;;;;;;;;;;;;;4983927;28;19940;-65
2021/01/18 09:40:46;;;;;;;;;;;;;;;;;;4999210;28;20308;-63
2021/01/18 09:43:14;;;;;;;;;;;;;;;;;;4992799;28;20396;-62
2021/01/18 09:45:41;;;;;;;;;;;;;;;;;;4990730;28;19926;-62
2021/01/18 09:48:11;;;;;;;;;;;;;;;;;;4989690;28;20243;-63
2021/01/18 09:50:39;;;;;;;;;;;;;;;;;;4991155;28;19937;-63
2021/01/18 09:53:07;;;;;;;;;;;;;;;;;;4988489;28;19930;-63
2021/01/18 09:55:34;;;;;;;;;;;;;;;;;;4990046;28;19926;-61
2021/01/18 09:58:02;;;;;;;;;;;;;;;;;;4996556;28;19972;-62
2021/01/18 10:00:30;;;;;;;;;;;;;;;;;;4988210;28;20417;-60
2021/01/18 10:02:58;;;;;;;;;;;;;;;;;;4997452;28;20019;-64
2021/01/18 10:05:25;;;;;;;;;;;;;;;;;;4989783;28;20377;-61
2021/01/18 10:07:53;;;;;;;;;;;;;;;;;;4989427;28;20035;-61
2021/01/18 10:10:21;;;;;;;;;;;;;;;;;;4989260;28;19936;-64
2021/01/18 10:12:49;;;;;;;;;;;;;;;;;;4986330;28;19926;-62
2021/01/18 10:15:17;;;;;;;;;;;;;;;;;;4976874;28;20342;-61
2021/01/18 10:17:44;;;;;;;;;;;;;;;;;;4986688;28;19934;-61
2021/01/18 10:20:13;;;;;;;;;;;;;;;;;;4989352;28;19977;-63
2021/01/18 10:22:41;;;;;;;;;;;;;;;;;;4986309;28;20260;-61
2021/01/18 10:25:08;;;;;;;;;;;;;;;;;;4985961;28;19933;-61
2021/01/18 10:27:36;;;;;;;;;;;;;;;;;;4988337;28;19930;-62
2021/01/18 10:30:04;;;;;;;;;;;;;;;;;;4988329;28;19969;-62
2021/01/18 10:32:33;;;;;;;;;;;;;;;;;;4985178;28;20386;-63
2021/01/18 10:35:00;;;;;;;;;;;;;;;;;;4993651;28;19930;-61
2021/01/18 10:37:28;;;;;;;;;;;;;;;;;;4986744;28;19936;-64
2021/01/18 10:39:55;;;;;;;;;;;;;;;;;;4988820;28;19937;-61
2021/01/18 10:42:23;;;;;;;;;;;;;;;;;;4981545;28;19930;-61
2021/01/18 10:44:50;;;;;;;;;;;;;;;;;;4983188;28;20017;-61
2021/01/18 10:47:18;;;;;;;;;;;;;;;;;;4984800;28;20006;-61
2021/01/18 10:49:45;;;;;;;;;;;;;;;;;;4990628;28;19988;-61
2021/01/18 10:52:14;;;;;;;;;;;;;;;;;;4990825;28;19957;-62
2021/01/18 10:54:42;;;;;;;;;;;;;;;;;;4991285;28;19926;-61
2021/01/18 10:57:10;;;;;;;;;;;;;;;;;;4989529;28;20010;-64
2021/01/18 10:59:53;;;;;;;;;;;;;;;;;;4990859;28;19947;-64
2021/01/18 11:02:21;;;;;;;;;;;;;;;;;;4987452;28;20321;-62
2021/01/18 11:04:49;;;;;;;;;;;;;;;;;;4989519;28;19930;-61
2021/01/18 11:07:17;;;;;;;;;;;;;;;;;;4990500;28;20000;-64
2021/01/18 11:09:45;;;;;;;;;;;;;;;;;;4981295;28;20000;-61
2021/01/18 11:12:12;;;;;;;;;;;;;;;;;;4988828;28;20370;-61
2021/01/18 11:14:40;;;;;;;;;;;;;;;;;;4994136;28;19936;-61
2021/01/18 11:17:07;;;;;;;;;;;;;;;;;;4999621;28;19929;-63
2021/01/18 11:19:35;;;;;;;;;;;;;;;;;;4991003;28;19929;-61
2021/01/18 11:22:03;;;;;;;;;;;;;;;;;;4987794;28;20263;-65
2021/01/18 11:24:30;;;;;;;;;;;;;;;;;;4991567;28;19957;-62
2021/01/18 11:26:58;;;;;;;;;;;;;;;;;;4991197;28;19929;-67
2021/01/18 11:29:29;;;;;;;;;;;;;;;;;;4977930;28;19926;-62
2021/01/18 11:31:56;;;;;;;;;;;;;;;;;;4987536;28;19948;-62
2021/01/18 11:34:24;;;;;;;;;;;;;;;;;;4990904;28;19926;-61
2021/01/18 11:36:52;;;;;;;;;;;;;;;;;;4986994;28;19926;-62
2021/01/18 11:39:19;;;;;;;;;;;;;;;;;;4994334;28;19937;-62
2021/01/18 11:41:46;;;;;;;;;;;;;;;;;;4993778;28;20027;-61
2021/01/18 11:44:14;;;;;;;;;;;;;;;;;;4989470;28;20412;-62
2021/01/18 11:46:42;;;;;;;;;;;;;;;;;;4992317;28;19926;-61
2021/01/18 11:49:09;;;;;;;;;;;;;;;;;;4991882;28;20850;-64
2021/01/18 11:51:37;;;;;;;;;;;;;;;;;;4989201;28;19930;-61
2021/01/18 11:54:04;;;;;;;;;;;;;;;;;;4993060;28;19926;-61
2021/01/18 11:56:32;;;;;;;;;;;;;;;;;;4991698;28;19926;-60
2021/01/18 11:59:00;;;;;;;;;;;;;;;;;;4990291;28;19941;-63
2021/01/18 12:01:27;;;;;;;;;;;;;;;;;;4986375;28;19930;-62
2021/01/18 12:03:56;;;;;;;;;;;;;;;;;;4989749;28;19976;-61
2021/01/18 12:06:24;;;;;;;;;;;;;;;;;;4992807;28;20028;-62
2021/01/18 12:08:51;;;;;;;;;;;;;;;;;;5004161;28;19930;-65
2021/01/18 12:11:19;;;;;;;;;;;;;;;;;;4987346;28;19933;-61
2021/01/18 12:13:46;;;;;;;;;;;;;;;;;;4984261;28;20347;-61
2021/01/18 12:16:14;;;;;;;;;;;;;;;;;;4991003;28;20025;-61
2021/01/18 12:18:41;;;;;;;;;;;;;;;;;;4986601;28;19969;-60
2021/01/18 12:21:09;;;;;;;;;;;;;;;;;;4993007;28;19936;-62
2021/01/18 12:23:36;;;;;;;;;;;;;;;;;;4993628;28;19926;-60
2021/01/18 12:26:03;;;;;;;;;;;;;;;;;;4988746;28;19930;-61
2021/01/18 12:28:31;;;;;;;;;;;;;;;;;;4984917;28;19930;-62
2021/01/18 12:30:59;;;;;;;;;;;;;;;;;;4990645;28;19941;-66
2021/01/18 12:33:26;;;;;;;;;;;;;;;;;;4987360;28;20374;-62
2021/01/18 12:35:53;;;;;;;;;;;;;;;;;;4992236;28;19926;-60
2021/01/18 12:38:22;;;;;;;;;;;;;;;;;;4989892;28;19930;-63
2021/01/18 12:40:50;;;;;;;;;;;;;;;;;;4993469;28;20040;-61
2021/01/18 12:43:17;;;;;;;;;;;;;;;;;;4992340;28;19930;-63
2021/01/18 12:45:44;;;;;;;;;;;;;;;;;;4988177;28;20444;-64
2021/01/18 12:48:12;;;;;;;;;;;;;;;;;;4994219;28;19977;-62
2021/01/18 12:50:40;;;;;;;;;;;;;;;;;;4982446;28;19925;-62
2021/01/18 12:53:08;;;;;;;;;;;;;;;;;;4990583;28;19980;-62
2021/01/18 12:55:35;;;;;;;;;;;;;;;;;;4991033;28;19934;-65
2021/01/18 12:58:03;;;;;;;;;;;;;;;;;;4990795;28;20021;-62
2021/01/18 13:00:30;;;;;;;;;;;;;;;;;;4986512;28;19933;-65
2021/01/18 13:02:58;;;;;;;;;;;;;;;;;;4992006;28;19972;-62
2021/01/18 13:05:25;;;;;;;;;;;;;;;;;;4988246;28;19977;-62
2021/01/18 13:08:11;;;;;;;;;;;;;;;;;;4997272;28;19934;-62
2021/01/18 13:10:39;;;;;;;;;;;;;;;;;;4986494;28;20247;-62
2021/01/18 13:13:07;;;;;;;;;;;;;;;;;;5001224;28;20003;-61
2021/01/18 13:15:34;;;;;;;;;;;;;;;;;;4995487;28;19936;-63
2021/01/18 13:18:02;;;;;;;;;;;;;;;;;;4987155;28;19948;-63
2021/01/18 13:20:31;;;;;;;;;;;;;;;;;;4984158;28;19926;-62
2021/01/18 13:22:59;;;;;;;;;;;;;;;;;;4992378;28;19926;-64
2021/01/18 13:25:27;;;;;;;;;;;;;;;;;;4993546;28;19996;-62
2021/01/18 13:27:54;;;;;;;;;;;;;;;;;;4993146;28;19933;-62
2021/01/18 13:30:22;;;;;;;;;;;;;;;;;;5002110;28;19934;-64
2021/01/18 13:32:49;;;;;;;;;;;;;;;;;;4992103;28;19977;-61
2021/01/18 13:35:17;;;;;;;;;;;;;;;;;;4991735;28;19981;-62
2021/01/18 13:37:45;;;;;;;;;;;;;;;;;;5000973;28;19945;-64
2021/01/18 13:40:14;;;;;;;;;;;;;;;;;;4991630;28;19933;-61
2021/01/18 13:42:42;;;;;;;;;;;;;;;;;;4986841;28;19996;-61
2021/01/18 13:45:09;;;;;;;;;;;;;;;;;;4992557;28;19933;-61
2021/01/18 13:47:37;;;;;;;;;;;;;;;;;;4980267;28;19933;-65
2021/01/18 13:50:05;;;;;;;;;;;;;;;;;;4989766;28;20110;-62
2021/01/18 13:52:32;;;;;;;;;;;;;;;;;;4991422;28;19972;-62
2021/01/18 13:55:00;;;;;;;;;;;;;;;;;;4991453;28;20051;-63
2021/01/18 13:57:27;;;;;;;;;;;;;;;;;;4994077;28;19969;-62
2021/01/18 13:59:55;;;;;;;;;;;;;;;;;;4989580;28;19926;-60
2021/01/18 14:02:22;;;;;;;;;;;;;;;;;;4990722;28;19933;-61
2021/01/18 14:04:50;;;;;;;;;;;;;;;;;;4989050;28;19972;-61
2021/01/18 14:07:18;;;;;;;;;;;;;;;;;;4999879;28;19975;-62
2021/01/18 14:09:46;;;;;;;;;;;;;;;;;;4990453;28;20017;-64
2021/01/18 14:12:14;;;;;;;;;;;;;;;;;;4992056;28;20381;-62
2021/01/18 14:14:41;;;;;;;;;;;;;;;;;;4991623;28;20008;-60
2021/01/18 14:17:09;;;;;;;;;;;;;;;;;;4990977;28;19961;-61
2021/01/18 14:19:37;;;;;;;;;;;;;;;;;;4988314;28;19930;-64
2021/01/18 14:22:04;;;;;;;;;;;;;;;;;;4991135;28;19926;-59
2021/01/18 14:24:32;;;;;;;;;;;;;;;;;;4984424;28;19932;-64
2021/01/18 14:27:00;;;;;;;;;;;;;;;;;;4989237;28;19929;-64
2021/01/18 14:29:27;;;;;;;;;;;;;;;;;;4989434;28;20289;-62
2021/01/18 14:31:55;;;;;;;;;;;;;;;;;;4987948;28;19926;-62
2021/01/18 14:34:23;;;;;;;;;;;;;;;;;;4989745;28;19972;-63
2021/01/18 14:36:50;;;;;;;;;;;;;;;;;;4988717;28;20452;-60
2021/01/18 14:39:18;;;;;;;;;;;;;;;;;;4993729;28;20382;-62
2021/01/18 14:41:47;;;;;;;;;;;;;;;;;;4997872;28;20285;-62
2021/01/18 14:44:15;;;;;;;;;;;;;;;;;;4995792;28;19930;-61
2021/01/18 14:46:43;;;;;;;;;;;;;;;;;;4996179;28;19934;-62
2021/01/18 14:49:11;;;;;;;;;;;;;;;;;;4999929;28;19940;-62
2021/01/18 14:51:39;;;;;;;;;;;;;;;;;;4997723;28;19972;-62
2021/01/18 14:54:06;;;;;;;;;;;;;;;;;;4995912;28;20685;-60
2021/01/18 14:56:35;;;;;;;;;;;;;;;;;;4997354;28;19976;-61
2021/01/18 14:59:05;;;;;;;;;;;;;;;;;;4995822;28;19992;-64
2021/01/18 15:01:35;;;;;;;;;;;;;;;;;;5002839;28;19932;-60
2021/01/18 15:04:02;;;;;;;;;;;;;;;;;;4996929;28;19925;-62
2021/01/18 15:06:30;;;;;;;;;;;;;;;;;;4995775;28;20024;-63
2021/01/18 15:08:58;;;;;;;;;;;;;;;;;;4995737;28;20296;-64
2021/01/18 15:11:26;;;;;;;;;;;;;;;;;;4993309;28;19933;-63
2021/01/18 15:13:54;;;;;;;;;;;;;;;;;;4996713;28;20332;-61
2021/01/18 15:16:22;;;;;;;;;;;;;;;;;;4996784;28;19976;-60
2021/01/18 15:18:49;;;;;;;;;;;;;;;;;;4976167;28;20253;-61
2021/01/18 15:21:17;;;;;;;;;;;;;;;;;;4998218;28;19933;-64
2021/01/18 15:23:45;;;;;;;;;;;;;;;;;;4997406;28;19937;-62
2021/01/18 15:26:12;;;;;;;;;;;;;;;;;;4997004;28;19926;-61
2021/01/18 15:28:40;;;;;;;;;;;;;;;;;;5009547;28;19926;-61
2021/01/18 15:31:08;;;;;;;;;;;;;;;;;;4987663;28;19934;-61
2021/01/18 15:33:35;;;;;;;;;;;;;;;;;;4994927;28;19941;-61
2021/01/18 15:36:13;;;;;;;;;;;;;;;;;;5001682;28;19925;-62
2021/01/18 15:38:41;;;;;;;;;;;;;;;;;;4994686;28;20523;-60
2021/01/18 15:41:08;;;;;;;;;;;;;;;;;;4996076;28;19963;-61
2021/01/18 15:43:36;;;;;;;;;;;;;;;;;;4994619;28;19965;-61
2021/01/18 15:46:04;;;;;;;;;;;;;;;;;;4999750;28;20325;-61
2021/01/18 15:48:32;;;;;;;;;;;;;;;;;;4995157;28;19926;-62
2021/01/18 15:50:59;;;;;;;;;;;;;;;;;;4992291;28;19926;-63
2021/01/18 15:53:26;;;;;;;;;;;;;;;;;;4995812;28;19930;-61
2021/01/18 15:56:05;;;;;;;;;;;;;;;;;;4992156;28;19940;-64
2021/01/18 15:58:32;;;;;;;;;;;;;;;;;;5005583;28;20016;-61
2021/01/18 16:01:00;;;;;;;;;;;;;;;;;;4993492;28;19936;-62
2021/01/18 16:03:28;;;;;;;;;;;;;;;;;;4990210;28;20346;-62
2021/01/18 16:05:55;;;;;;;;;;;;;;;;;;4993673;28;19932;-61
2021/01/18 16:08:23;;;;;;;;;;;;;;;;;;4998765;28;20411;-61
2021/01/18 16:10:50;;;;;;;;;;;;;;;;;;4996183;28;20471;-60
2021/01/18 16:13:18;;;;;;;;;;;;;;;;;;4994172;28;19934;-64
2021/01/18 16:15:45;;;;;;;;;;;;;;;;;;4996418;28;20411;-61
2021/01/18 16:18:13;;;;;;;;;;;;;;;;;;4997007;28;20354;-60
2021/01/18 16:20:40;;;;;;;;;;;;;;;;;;4991350;28;19934;-64
2021/01/18 16:23:07;;;;;;;;;;;;;;;;;;4997228;28;20028;-62
2021/01/18 16:25:35;;;;;;;;;;;;;;;;;;4989874;28;20340;-60
2021/01/18 16:28:02;;;;;;;;;;;;;;;;;;4998754;28;19929;-64
2021/01/18 16:30:29;;;;;;;;;;;;;;;;;;4991557;28;19969;-62
2021/01/18 16:32:57;;;;;;;;;;;;;;;;;;4992368;28;19933;-64
2021/01/18 16:35:24;;;;;;;;;;;;;;;;;;4988711;28;19930;-61
2021/01/18 16:37:52;;;;;;;;;;;;;;;;;;4993602;28;19926;-61
2021/01/18 16:40:21;;;;;;;;;;;;;;;;;;4981443;28;20146;-64
2021/01/18 16:42:49;;;;;;;;;;;;;;;;;;4996343;28;19926;-62
2021/01/18 16:45:16;;;;;;;;;;;;;;;;;;4991634;28;19930;-60
2021/01/18 16:47:43;;;;;;;;;;;;;;;;;;4989631;28;19933;-60